Time;durP1;ratioP1;P1;durP2;ratioP2;P2;SDS_P1;SDS_P2;PMS_P1;PMS_P2;Temp;Humidity;BMP_temperature;BMP_pressure;BME280_temperature;BME280_humidity;BME280_pressure;Samples;Min_cycle;Max_cycle;Signal;HPM_P1;HPM_P2
2024/01/29 00:01:28;;;;;;;5.22;2.70;;;5.40;69.80;;;;;;5094188;28;20227;-64
2024/01/29 00:03:55;;;;;;;4.55;2.83;;;5.40;70.10;;;;;;5094683;28;20180;-64
2024/01/29 00:06:22;;;;;;;6.95;4.00;;;5.40;70.40;;;;;;5094950;28;20204;-63
2024/01/29 00:08:52;;;;;;;12.57;9.05;;;5.40;70.50;;;;;;5094658;28;20192;-63
2024/01/29 00:11:19;;;;;;;12.52;10.93;;;5.40;70.40;;;;;;5095932;28;20273;-62
2024/01/29 00:13:46;;;;;;;10.20;8.88;;;5.50;70.30;;;;;;5095321;28;20204;-65
2024/01/29 00:16:12;;;;;;;13.35;12.05;;;5.50;70.00;;;;;;5095222;28;20227;-63
2024/01/29 00:18:39;;;;;;;5.60;4.20;;;5.50;69.80;;;;;;5095494;28;20227;-63
2024/01/29 00:21:06;;;;;;;3.83;3.30;;;5.50;69.70;;;;;;5096180;28;20208;-63
2024/01/29 00:23:33;;;;;;;4.55;3.42;;;5.50;70.30;;;;;;5095375;28;20224;-63
2024/01/29 00:26:01;;;;;;;4.32;2.70;;;5.50;69.80;;;;;;5095672;28;20200;-63
2024/01/29 00:28:28;;;;;;;3.08;2.60;;;5.50;69.80;;;;;;5097824;28;20291;-63
2024/01/29 00:30:55;;;;;;;3.20;2.63;;;5.40;69.70;;;;;;5100798;28;20212;-63
2024/01/29 00:33:22;;;;;;;4.30;2.55;;;5.40;69.90;;;;;;5100280;28;20224;-63
2024/01/29 00:35:48;;;;;;;2.88;2.13;;;5.30;70.30;;;;;;5100358;28;20196;-61
2024/01/29 00:38:15;;;;;;;2.58;2.30;;;5.30;70.70;;;;;;5100741;28;20226;-62
2024/01/29 00:40:42;;;;;;;2.40;1.95;;;5.30;71.00;;;;;;5099907;28;20291;-63
2024/01/29 00:43:10;;;;;;;2.38;1.95;;;5.30;71.00;;;;;;5099529;28;20228;-62
2024/01/29 00:45:37;;;;;;;3.75;2.97;;;5.30;71.00;;;;;;5099821;28;20574;-63
2024/01/29 00:48:05;;;;;;;2.35;1.95;;;5.30;71.00;;;;;;5098665;28;20655;-63
2024/01/29 00:50:31;;;;;;;2.75;2.10;;;5.30;70.90;;;;;;5098500;28;20201;-62
2024/01/29 00:52:58;;;;;;;3.90;2.28;;;5.30;70.90;;;;;;5097738;28;20227;-63
2024/01/29 00:55:25;;;;;;;4.50;2.30;;;5.30;70.80;;;;;;5099615;28;20212;-63
2024/01/29 00:57:52;;;;;;;2.38;1.80;;;5.30;70.70;;;;;;5098214;28;20212;-62
2024/01/29 01:00:20;;;;;;;2.95;2.03;;;5.40;70.70;;;;;;5097602;28;20200;-63
2024/01/29 01:02:47;;;;;;;2.42;1.95;;;5.30;70.70;;;;;;5097689;28;20224;-63
2024/01/29 01:05:13;;;;;;;2.28;2.05;;;5.40;70.80;;;;;;5098186;28;20204;-64
2024/01/29 01:07:40;;;;;;;2.50;2.13;;;5.30;70.90;;;;;;5097877;28;20192;-63
2024/01/29 01:10:08;;;;;;;4.05;2.40;;;5.40;71.10;;;;;;5098759;28;20200;-62
2024/01/29 01:12:35;;;;;;;4.30;2.15;;;5.40;71.10;;;;;;5098833;28;20231;-63
2024/01/29 01:15:02;;;;;;;2.60;2.10;;;5.40;71.10;;;;;;5097377;28;20688;-64
2024/01/29 01:17:30;;;;;;;2.08;1.88;;;5.40;71.00;;;;;;5097997;28;20200;-63
2024/01/29 01:19:57;;;;;;;3.17;1.70;;;5.40;70.60;;;;;;5097570;28;20295;-62
2024/01/29 01:22:23;;;;;;;2.95;2.08;;;5.50;70.30;;;;;;5098010;28;20216;-63
2024/01/29 01:24:50;;;;;;;2.03;1.60;;;5.50;70.00;;;;;;5099199;28;20197;-62
2024/01/29 01:27:17;;;;;;;6.07;2.55;;;5.50;69.70;;;;;;5096696;28;20692;-63
2024/01/29 01:29:44;;;;;;;3.15;2.47;;;5.50;69.30;;;;;;5098454;28;20204;-62
2024/01/29 01:32:11;;;;;;;2.92;2.33;;;5.60;69.10;;;;;;5097108;28;20319;-62
2024/01/29 01:34:39;;;;;;;3.28;2.20;;;5.50;68.90;;;;;;5097279;28;20205;-63
2024/01/29 01:37:06;;;;;;;3.40;2.33;;;5.50;69.10;;;;;;5096808;28;20287;-63
2024/01/29 01:39:33;;;;;;;2.08;1.70;;;5.50;69.10;;;;;;5096153;28;20587;-62
2024/01/29 01:41:59;;;;;;;3.38;2.40;;;5.50;69.10;;;;;;5097057;28;20572;-61
2024/01/29 01:44:26;;;;;;;4.13;1.75;;;5.50;69.00;;;;;;5097233;28;20204;-64
2024/01/29 01:46:53;;;;;;;3.45;2.22;;;5.50;68.80;;;;;;5100793;28;20628;-62
2024/01/29 01:49:21;;;;;;;3.25;1.80;;;5.60;68.40;;;;;;5096884;28;20199;-63
2024/01/29 01:51:50;;;;;;;3.80;1.85;;;5.60;68.20;;;;;;5097001;28;20216;-61
2024/01/29 01:54:17;;;;;;;3.28;2.25;;;5.60;68.10;;;;;;5096650;28;20201;-63
2024/01/29 01:56:45;;;;;;;2.58;2.38;;;5.50;68.00;;;;;;5096535;28;20235;-64
2024/01/29 01:59:13;;;;;;;2.65;1.98;;;5.60;68.20;;;;;;5096854;28;20216;-62
2024/01/29 02:01:40;;;;;;;3.50;2.25;;;5.50;67.80;;;;;;5097421;28;20229;-63
2024/01/29 02:04:08;;;;;;;2.80;1.70;;;5.60;67.80;;;;;;5103761;28;20192;-63
2024/01/29 02:06:35;;;;;;;2.67;1.90;;;5.50;67.60;;;;;;5104369;28;20204;-62
2024/01/29 02:09:05;;;;;;;2.08;1.83;;;5.50;67.60;;;;;;5109235;28;20576;-63
2024/01/29 02:11:32;;;;;;;2.97;1.88;;;5.50;67.60;;;;;;5102987;28;20223;-63
2024/01/29 02:13:59;;;;;;;3.15;2.53;;;5.50;67.70;;;;;;5103010;28;20227;-62
2024/01/29 02:16:26;;;;;;;3.65;1.60;;;5.50;67.70;;;;;;5102712;28;20200;-62
2024/01/29 02:18:53;;;;;;;2.10;1.75;;;5.50;67.70;;;;;;5105800;28;20331;-62
2024/01/29 02:21:19;;;;;;;2.35;1.90;;;5.50;67.60;;;;;;5109704;28;20204;-64
2024/01/29 02:23:47;;;;;;;2.75;2.08;;;5.50;67.50;;;;;;5110395;28;20200;-63
2024/01/29 02:26:14;;;;;;;3.38;1.85;;;5.50;67.30;;;;;;5110409;28;20287;-62
2024/01/29 02:28:41;;;;;;;3.40;1.83;;;5.50;67.20;;;;;;5109026;28;20197;-63
2024/01/29 02:31:08;;;;;;;2.33;1.85;;;5.50;67.00;;;;;;5108505;28;20281;-62
2024/01/29 02:33:35;;;;;;;2.97;2.08;;;5.50;66.90;;;;;;5106619;28;20231;-62
2024/01/29 02:36:02;;;;;;;2.58;1.65;;;5.50;66.80;;;;;;5104217;28;20646;-63
2024/01/29 02:38:29;;;;;;;2.10;1.70;;;5.50;66.60;;;;;;5104981;28;20276;-63
2024/01/29 02:40:57;;;;;;;2.10;1.70;;;5.50;66.50;;;;;;5106171;28;20207;-63
2024/01/29 02:43:23;;;;;;;2.20;1.73;;;5.50;66.20;;;;;;5109163;28;20227;-63
2024/01/29 02:45:51;;;;;;;1.90;1.50;;;5.60;66.10;;;;;;5109893;28;20210;-63
2024/01/29 02:48:18;;;;;;;2.85;1.70;;;5.60;65.70;;;;;;5105585;28;20199;-62
2024/01/29 02:50:45;;;;;;;2.42;1.70;;;5.60;65.30;;;;;;5107273;28;20204;-63
2024/01/29 02:53:12;;;;;;;2.78;1.88;;;5.60;65.00;;;;;;5107407;28;20283;-63
2024/01/29 02:55:39;;;;;;;1.70;1.60;;;5.60;64.60;;;;;;5108798;28;20225;-63
2024/01/29 02:58:07;;;;;;;3.63;1.42;;;5.60;64.80;;;;;;5106703;28;20200;-62
2024/01/29 03:00:34;;;;;;;2.40;1.50;;;5.60;63.90;;;;;;5106825;28;20208;-62
2024/01/29 03:03:01;;;;;;;2.05;1.70;;;5.60;63.60;;;;;;5134893;22;20231;-62
2024/01/29 03:05:27;;;;;;;2.95;1.60;;;5.60;63.50;;;;;;5114508;28;20224;-61
2024/01/29 03:07:54;;;;;;;3.03;2.10;;;5.60;63.50;;;;;;5114641;28;20199;-61
2024/01/29 03:10:22;;;;;;;1.85;1.52;;;5.50;63.60;;;;;;5114314;28;20685;-61
2024/01/29 03:12:48;;;;;;;2.40;2.20;;;5.50;63.70;;;;;;5114322;28;20220;-62
2024/01/29 03:15:17;;;;;;;1.85;1.70;;;5.40;63.70;;;;;;5114413;28;20252;-62
2024/01/29 03:17:44;;;;;;;1.80;1.65;;;5.40;63.80;;;;;;5113983;28;20645;-60
2024/01/29 03:20:11;;;;;;;3.40;1.50;;;5.40;63.80;;;;;;5114020;28;20731;-61
2024/01/29 03:22:38;;;;;;;2.65;1.90;;;5.40;63.70;;;;;;5114135;28;20222;-58
2024/01/29 03:25:06;;;;;;;2.13;1.58;;;5.40;63.60;;;;;;5114253;28;20196;-61
2024/01/29 03:27:33;;;;;;;2.72;2.10;;;5.40;63.70;;;;;;5114391;28;20624;-60
2024/01/29 03:30:00;;;;;;;2.65;1.95;;;5.40;63.60;;;;;;5114207;28;20691;-60
2024/01/29 03:32:28;;;;;;;1.80;1.50;;;5.40;63.60;;;;;;5114159;28;20314;-60
2024/01/29 03:34:54;;;;;;;3.40;1.88;;;5.40;63.40;;;;;;5114224;28;20195;-61
2024/01/29 03:37:21;;;;;;;2.35;2.13;;;5.50;63.00;;;;;;5114066;28;20199;-60
2024/01/29 03:39:48;;;;;;;2.75;1.50;;;5.50;62.20;;;;;;5114100;28;20593;-61
2024/01/29 03:42:15;;;;;;;3.80;1.50;;;5.60;61.50;;;;;;5113978;28;20226;-60
2024/01/29 03:44:42;;;;;;;3.67;1.75;;;5.70;61.30;;;;;;5113886;28;20200;-61
2024/01/29 03:47:08;;;;;;;2.45;1.67;;;5.70;61.20;;;;;;5115180;28;20202;-61
2024/01/29 03:49:36;;;;;;;2.13;1.92;;;5.70;61.10;;;;;;5114514;28;20202;-61
2024/01/29 03:52:03;;;;;;;2.40;2.05;;;5.60;61.10;;;;;;5113989;28;20654;-61
2024/01/29 03:54:30;;;;;;;3.10;2.03;;;5.60;61.20;;;;;;5113527;28;20201;-61
2024/01/29 03:56:57;;;;;;;1.83;1.63;;;5.60;61.30;;;;;;5114718;28;20203;-61
2024/01/29 03:59:23;;;;;;;1.88;1.50;;;5.60;61.20;;;;;;5114980;28;20215;-60
2024/01/29 04:01:51;;;;;;;2.10;1.50;;;5.60;61.10;;;;;;5115243;28;20206;-60
2024/01/29 04:04:18;;;;;;;1.92;1.60;;;5.60;60.70;;;;;;5114692;28;20180;-61
2024/01/29 04:06:48;;;;;;;3.25;1.67;;;5.60;60.10;;;;;;5114246;28;20210;-60
2024/01/29 04:09:20;;;;;;;2.28;1.50;;;5.60;60.70;;;;;;5113646;28;20614;-60
2024/01/29 04:13:07;;;;;;;2.50;1.80;;;5.60;59.70;;;;;;5090980;28;20564;-61
2024/01/29 04:15:34;;;;;;;2.25;1.60;;;5.50;60.00;;;;;;5090928;28;20205;-61
2024/01/29 04:18:01;;;;;;;2.80;1.90;;;5.50;60.00;;;;;;5090521;28;20550;-62
2024/01/29 04:20:28;;;;;;;3.78;2.00;;;5.50;60.10;;;;;;5090672;28;20197;-63
2024/01/29 04:22:55;;;;;;;1.90;1.73;;;5.40;60.20;;;;;;5090341;28;20212;-62
2024/01/29 04:25:21;;;;;;;1.88;1.65;;;5.40;60.40;;;;;;5106173;22;20232;-63
2024/01/29 04:27:49;;;;;;;1.88;1.70;;;5.30;60.70;;;;;;5074353;28;20565;-63
2024/01/29 04:30:17;;;;;;;2.00;1.80;;;5.20;60.90;;;;;;5073441;28;20205;-63
2024/01/29 04:32:44;;;;;;;2.92;2.00;;;5.20;61.20;;;;;;5078131;28;20241;-62
2024/01/29 04:35:10;;;;;;;2.65;1.95;;;5.20;61.50;;;;;;5082264;28;20702;-63
2024/01/29 04:37:37;;;;;;;2.35;1.55;;;5.20;61.70;;;;;;5080832;28;20288;-63
2024/01/29 04:40:05;;;;;;;2.10;1.48;;;5.20;61.80;;;;;;5080790;28;20205;-64
2024/01/29 04:42:32;;;;;;;3.20;1.73;;;5.20;62.10;;;;;;5082029;28;20197;-63
2024/01/29 04:44:58;;;;;;;1.50;1.40;;;5.10;62.00;;;;;;5082189;28;20242;-63
2024/01/29 04:47:27;;;;;;;1.88;1.48;;;5.20;62.00;;;;;;5085282;28;20201;-63
2024/01/29 04:49:54;;;;;;;2.70;1.70;;;5.20;61.90;;;;;;5086000;28;20227;-63
2024/01/29 04:52:21;;;;;;;2.10;1.60;;;5.10;62.10;;;;;;5084885;28;20252;-63
2024/01/29 04:54:48;;;;;;;2.03;1.83;;;5.10;62.40;;;;;;5083525;28;20217;-63
2024/01/29 04:57:14;;;;;;;3.00;1.80;;;5.10;62.40;;;;;;5079699;28;20300;-63
2024/01/29 04:59:41;;;;;;;1.65;1.55;;;5.10;62.30;;;;;;5076896;28;20201;-62
2024/01/29 05:02:08;;;;;;;2.40;1.67;;;5.20;62.20;;;;;;5106229;22;20243;-60
2024/01/29 05:04:36;;;;;;;2.92;1.55;;;5.20;62.00;;;;;;5089835;28;20201;-60
2024/01/29 05:07:03;;;;;;;1.73;1.63;;;5.30;62.00;;;;;;5089675;28;20211;-60
2024/01/29 05:09:30;;;;;;;1.95;1.40;;;5.30;61.90;;;;;;5089359;28;20207;-61
2024/01/29 05:11:57;;;;;;;2.17;1.30;;;5.30;61.80;;;;;;5089086;28;20687;-61
2024/01/29 05:14:26;;;;;;;2.72;1.70;;;5.30;61.90;;;;;;5089005;28;20650;-60
2024/01/29 05:16:53;;;;;;;3.67;1.50;;;5.30;61.90;;;;;;5089614;28;20299;-61
2024/01/29 05:19:20;;;;;;;2.00;1.42;;;5.30;61.90;;;;;;5089360;28;20204;-60
2024/01/29 05:21:49;;;;;;;2.40;1.60;;;5.30;61.90;;;;;;5089314;28;20276;-61
2024/01/29 05:24:16;;;;;;;1.30;1.20;;;5.30;62.10;;;;;;5076785;28;20224;-62
2024/01/29 05:26:43;;;;;;;3.00;1.80;;;5.20;62.00;;;;;;5076458;28;20224;-61
2024/01/29 05:29:09;;;;;;;2.63;2.10;;;5.20;62.10;;;;;;5075733;28;20197;-63
2024/01/29 05:31:36;;;;;;;2.60;1.98;;;5.20;62.20;;;;;;5075752;28;20221;-61
2024/01/29 05:34:03;;;;;;;2.20;1.67;;;5.20;62.30;;;;;;5075767;28;20211;-61
2024/01/29 05:36:30;;;;;;;1.52;1.42;;;5.10;62.40;;;;;;5075657;28;20201;-61
2024/01/29 05:38:58;;;;;;;1.90;1.70;;;5.10;62.50;;;;;;5076000;28;20207;-62
2024/01/29 05:41:24;;;;;;;1.98;1.77;;;5.10;62.70;;;;;;5075419;28;20228;-61
2024/01/29 05:43:51;;;;;;;1.98;1.65;;;5.00;62.90;;;;;;5076398;28;20203;-61
2024/01/29 05:46:18;;;;;;;3.72;1.50;;;5.00;63.10;;;;;;5075730;28;20197;-62
2024/01/29 05:48:45;;;;;;;2.05;1.85;;;5.00;63.40;;;;;;5076045;28;20204;-61
2024/01/29 05:51:11;;;;;;;1.83;1.67;;;4.90;63.50;;;;;;5075736;28;20227;-61
2024/01/29 05:53:38;;;;;;;2.95;1.50;;;4.90;63.70;;;;;;5075370;28;20207;-61
2024/01/29 05:56:07;;;;;;;2.45;1.90;;;4.90;64.00;;;;;;5075191;28;20296;-61
2024/01/29 05:58:36;;;;;;;3.38;2.00;;;4.80;64.10;;;;;;5075117;28;20215;-60
2024/01/29 06:01:04;;;;;;;2.20;1.98;;;4.80;64.30;;;;;;5078715;28;20270;-61
2024/01/29 06:03:31;;;;;;;2.08;1.58;;;4.80;64.60;;;;;;5078464;28;20190;-61
2024/01/29 06:05:57;;;;;;;2.60;1.80;;;4.80;64.90;;;;;;5078744;28;20201;-60
2024/01/29 06:08:24;;;;;;;1.95;1.73;;;4.80;65.10;;;;;;5077003;28;20212;-62
2024/01/29 06:10:53;;;;;;;2.40;1.58;;;4.80;65.30;;;;;;5076925;28;20229;-64
2024/01/29 06:13:23;;;;;;;3.75;1.73;;;4.70;65.40;;;;;;5075398;28;20221;-62
2024/01/29 06:15:50;;;;;;;3.10;1.90;;;4.70;65.50;;;;;;5074906;28;20195;-62
2024/01/29 06:18:17;;;;;;;2.35;2.15;;;4.70;65.60;;;;;;5074828;28;20207;-60
2024/01/29 06:20:44;;;;;;;2.13;1.98;;;4.70;65.70;;;;;;5074567;28;20671;-60
2024/01/29 06:23:12;;;;;;;2.78;1.63;;;4.70;65.90;;;;;;5074939;28;20201;-63
2024/01/29 06:25:38;;;;;;;2.55;1.75;;;4.70;66.10;;;;;;5076378;28;20299;-64
2024/01/29 06:28:06;;;;;;;2.35;1.75;;;4.70;66.20;;;;;;5077648;28;20197;-62
2024/01/29 06:30:34;;;;;;;2.05;1.73;;;4.70;66.30;;;;;;5078309;28;20209;-61
2024/01/29 06:33:01;;;;;;;2.42;1.90;;;4.60;66.40;;;;;;5077004;28;20315;-61
2024/01/29 06:35:28;;;;;;;2.30;2.10;;;4.60;66.60;;;;;;5073691;28;20212;-60
2024/01/29 06:37:55;;;;;;;1.75;1.65;;;4.60;66.90;;;;;;5074487;28;20663;-60
2024/01/29 06:40:26;;;;;;;4.70;2.08;;;4.60;67.20;;;;;;5074373;28;20209;-61
2024/01/29 06:42:54;;;;;;;3.10;1.83;;;4.60;67.20;;;;;;5074602;28;20221;-62
2024/01/29 06:45:20;;;;;;;2.00;1.73;;;4.60;67.20;;;;;;5074430;28;20208;-61
2024/01/29 06:47:48;;;;;;;2.80;1.70;;;4.60;67.20;;;;;;5073862;28;20205;-61
2024/01/29 06:50:16;;;;;;;3.63;1.92;;;4.60;67.10;;;;;;5074041;28;20574;-61
2024/01/29 06:52:43;;;;;;;2.78;2.05;;;4.60;67.00;;;;;;5074112;28;20577;-62
2024/01/29 06:55:10;;;;;;;2.95;1.83;;;4.60;67.00;;;;;;5073756;28;20709;-60
2024/01/29 06:57:37;;;;;;;1.95;1.75;;;4.60;67.00;;;;;;5074355;28;20227;-61
2024/01/29 07:00:05;;;;;;;3.55;2.28;;;4.60;67.20;;;;;;5075025;28;20205;-60
2024/01/29 07:02:33;;;;;;;4.07;2.20;;;4.60;67.40;;;;;;5076615;28;20224;-61
2024/01/29 07:05:01;;;;;;;5.40;1.80;;;4.60;67.50;;;;;;5077495;28;20203;-61
2024/01/29 07:07:27;;;;;;;1.55;1.40;;;4.60;67.40;;;;;;5076974;28;20232;-60
2024/01/29 07:09:55;;;;;;;2.78;2.00;;;4.70;67.50;;;;;;5075724;28;20223;-60
2024/01/29 07:12:22;;;;;;;2.15;1.73;;;4.70;67.40;;;;;;5073534;28;20270;-60
2024/01/29 07:14:49;;;;;;;2.70;1.73;;;4.70;67.20;;;;;;5075720;28;20223;-61
2024/01/29 07:17:16;;;;;;;2.78;2.20;;;4.70;67.10;;;;;;5075077;28;20292;-60
2024/01/29 07:19:45;;;;;;;1.60;1.50;;;4.80;67.10;;;;;;5073963;28;20255;-62
2024/01/29 07:22:18;;;;;;;2.47;2.28;;;4.80;67.00;;;;;;5073067;28;20722;-62
2024/01/29 07:24:45;;;;;;;2.08;1.88;;;4.80;67.00;;;;;;5074079;28;20276;-61
2024/01/29 07:27:12;;;;;;;2.80;1.85;;;4.80;67.30;;;;;;5073520;28;20201;-60
2024/01/29 07:29:38;;;;;;;2.50;1.83;;;4.80;67.50;;;;;;5073045;28;20205;-63
2024/01/29 07:32:06;;;;;;;2.83;2.00;;;4.80;67.60;;;;;;5073039;28;20579;-61
2024/01/29 07:34:33;;;;;;;2.78;2.00;;;4.90;67.80;;;;;;5073477;28;20209;-61
2024/01/29 07:37:00;;;;;;;3.78;2.00;;;4.90;67.70;;;;;;5073608;28;20579;-60
2024/01/29 07:39:28;;;;;;;2.95;1.95;;;4.90;67.70;;;;;;5073839;28;20201;-61
2024/01/29 07:41:55;;;;;;;2.88;2.00;;;5.00;67.60;;;;;;5073024;28;20229;-61
2024/01/29 07:44:21;;;;;;;2.20;1.73;;;5.10;67.60;;;;;;5072949;28;20201;-63
2024/01/29 07:46:48;;;;;;;3.35;2.00;;;5.10;67.50;;;;;;5073041;28;20695;-61
2024/01/29 07:49:15;;;;;;;6.85;2.95;;;5.20;67.50;;;;;;5073406;28;20338;-60
2024/01/29 07:51:42;;;;;;;2.75;1.65;;;5.30;67.40;;;;;;5073351;28;20250;-61
2024/01/29 07:54:09;;;;;;;5.28;2.30;;;5.30;67.20;;;;;;5073107;28;20193;-61
2024/01/29 07:56:39;;;;;;;3.30;2.13;;;5.40;67.10;;;;;;5073314;28;20200;-61
2024/01/29 07:59:06;;;;;;;3.72;2.20;;;5.40;67.10;;;;;;5072605;28;20276;-61
2024/01/29 08:01:32;;;;;;;4.78;2.50;;;5.50;67.10;;;;;;5072399;28;20239;-60
2024/01/29 08:04:01;;;;;;;2.88;2.50;;;5.60;67.10;;;;;;5072808;28;20203;-62
2024/01/29 08:06:28;;;;;;;3.13;2.00;;;5.70;67.10;;;;;;5072984;28;20205;-61
2024/01/29 08:08:55;;;;;;;3.47;2.08;;;5.70;67.00;;;;;;5073073;28;20301;-61
2024/01/29 08:11:22;;;;;;;3.13;2.30;;;5.80;66.90;;;;;;5073029;28;20227;-61
2024/01/29 08:13:50;;;;;;;4.28;2.80;;;6.00;66.80;;;;;;5073018;28;20224;-61
2024/01/29 08:16:17;;;;;;;3.22;2.30;;;6.20;66.80;;;;;;5072949;28;20205;-62
2024/01/29 08:18:43;;;;;;;3.30;2.10;;;6.50;66.10;;;;;;5073220;28;20197;-61
2024/01/29 08:21:10;;;;;;;5.85;2.90;;;6.60;65.20;;;;;;5073192;28;20217;-60
2024/01/29 08:23:37;;;;;;;4.03;2.83;;;6.80;64.70;;;;;;5073141;28;20193;-61
2024/01/29 08:26:04;;;;;;;3.95;2.63;;;6.80;64.20;;;;;;5072922;28;20207;-59
2024/01/29 08:28:31;;;;;;;1.85;1.73;;;6.80;64.00;;;;;;5072913;28;20205;-61
2024/01/29 08:31:00;;;;;;;2.45;2.25;;;6.70;63.70;;;;;;5072780;28;20273;-61
2024/01/29 08:33:28;;;;;;;8.93;3.55;;;6.60;63.60;;;;;;5072983;28;20221;-61
2024/01/29 08:35:55;;;;;;;3.72;2.35;;;6.50;63.80;;;;;;5072975;28;20208;-60
2024/01/29 08:38:23;;;;;;;2.80;2.30;;;6.40;63.90;;;;;;5072606;28;20226;-61
2024/01/29 08:40:50;;;;;;;2.95;2.33;;;6.40;64.00;;;;;;5072976;28;20197;-61
2024/01/29 08:43:17;;;;;;;3.47;2.53;;;6.30;64.00;;;;;;5072949;28;20197;-62
2024/01/29 08:45:44;;;;;;;2.90;1.88;;;6.30;64.20;;;;;;5072555;28;20203;-62
2024/01/29 08:48:12;;;;;;;2.83;2.35;;;6.30;64.20;;;;;;5072480;28;20207;-60
2024/01/29 08:50:39;;;;;;;2.67;2.15;;;6.30;64.50;;;;;;5072965;28;20197;-60
2024/01/29 08:53:07;;;;;;;3.55;2.05;;;6.30;64.50;;;;;;5073019;28;20217;-62
2024/01/29 08:55:34;;;;;;;5.30;2.05;;;6.30;64.50;;;;;;5072904;28;20204;-61
2024/01/29 08:58:01;;;;;;;5.00;2.35;;;6.30;64.30;;;;;;5074538;28;20208;-61
2024/01/29 09:00:27;;;;;;;4.38;2.15;;;6.40;64.20;;;;;;5077624;28;20524;-61
2024/01/29 09:02:54;;;;;;;2.53;2.30;;;6.40;64.30;;;;;;5077101;28;20232;-62
2024/01/29 09:05:22;;;;;;;2.92;2.40;;;6.50;64.30;;;;;;5077467;28;20201;-62
2024/01/29 09:07:49;;;;;;;2.80;2.50;;;6.60;64.40;;;;;;5076339;28;20197;-61
2024/01/29 09:10:16;;;;;;;3.83;2.90;;;6.70;64.20;;;;;;5075941;28;20204;-61
2024/01/29 09:12:43;;;;;;;3.17;2.22;;;6.80;64.20;;;;;;5076476;28;20223;-60
2024/01/29 09:15:10;;;;;;;3.05;2.45;;;6.80;64.10;;;;;;5075992;28;20197;-61
2024/01/29 09:17:37;;;;;;;3.28;2.25;;;6.80;64.00;;;;;;5075540;28;20553;-63
2024/01/29 09:20:07;;;;;;;3.05;2.75;;;6.90;63.90;;;;;;5075777;28;20205;-61
2024/01/29 09:22:35;;;;;;;3.20;2.50;;;6.90;63.80;;;;;;5075863;28;20308;-61
2024/01/29 09:25:02;;;;;;;3.58;2.08;;;7.00;63.70;;;;;;5076013;28;20200;-61
2024/01/29 09:27:29;;;;;;;6.07;2.60;;;7.00;63.50;;;;;;5076182;28;20745;-61
2024/01/29 09:29:56;;;;;;;3.40;3.10;;;7.10;63.50;;;;;;5075792;28;20266;-62
2024/01/29 09:32:22;;;;;;;4.13;2.30;;;7.10;63.60;;;;;;5076022;28;20217;-61
2024/01/29 09:34:49;;;;;;;3.05;2.30;;;7.20;63.60;;;;;;5076185;28;20212;-62
2024/01/29 09:37:18;;;;;;;3.25;2.50;;;7.30;63.60;;;;;;5075361;28;20685;-63
2024/01/29 09:39:47;;;;;;;3.42;1.85;;;7.40;63.30;;;;;;5075287;28;20205;-62
2024/01/29 09:42:19;;;;;;;4.82;2.28;;;7.50;63.10;;;;;;5075507;28;20220;-62
2024/01/29 09:44:47;;;;;;;2.50;1.85;;;7.60;63.00;;;;;;5075781;28;20182;-63
2024/01/29 09:47:15;;;;;;;2.42;2.22;;;7.70;62.90;;;;;;5075658;28;20201;-61
2024/01/29 09:49:43;;;;;;;3.40;2.17;;;7.80;62.80;;;;;;5075917;28;20201;-61
2024/01/29 09:52:12;;;;;;;2.13;1.92;;;7.90;62.80;;;;;;5075439;28;20228;-62
2024/01/29 09:54:40;;;;;;;3.22;1.95;;;8.00;62.70;;;;;;5075349;28;20213;-62
2024/01/29 09:57:11;;;;;;;4.90;2.85;;;8.00;62.70;;;;;;5075221;28;20524;-62
2024/01/29 09:59:38;;;;;;;2.50;2.30;;;8.10;62.50;;;;;;5074751;28;20636;-62
2024/01/29 10:02:05;;;;;;;4.13;2.28;;;8.20;62.50;;;;;;5074942;28;20233;-61
2024/01/29 10:04:32;;;;;;;3.15;2.40;;;8.30;62.50;;;;;;5075145;28;20552;-62
2024/01/29 10:06:59;;;;;;;3.60;2.58;;;8.30;62.30;;;;;;5074683;28;20208;-61
2024/01/29 10:09:25;;;;;;;2.95;2.10;;;8.40;62.10;;;;;;5075029;28;20270;-61
2024/01/29 10:11:52;;;;;;;4.18;2.63;;;8.40;61.90;;;;;;5074560;28;20225;-61
2024/01/29 10:14:20;;;;;;;4.03;2.30;;;8.50;61.70;;;;;;5074541;28;20231;-61
2024/01/29 10:16:49;;;;;;;4.35;2.63;;;8.50;61.50;;;;;;5074878;28;20205;-62
2024/01/29 10:19:16;;;;;;;3.10;2.33;;;8.60;61.50;;;;;;5074985;28;20201;-61
2024/01/29 10:21:43;;;;;;;3.42;2.45;;;8.60;61.30;;;;;;5074802;28;20221;-62
2024/01/29 10:24:14;;;;;;;5.68;3.90;;;8.60;61.20;;;;;;5074345;28;20204;-60
2024/01/29 10:26:41;;;;;;;2.67;2.20;;;8.70;61.20;;;;;;5074576;28;20209;-62
2024/01/29 10:29:09;;;;;;;3.88;2.95;;;8.80;61.20;;;;;;5074716;28;20223;-62
2024/01/29 10:31:38;;;;;;;3.90;2.40;;;8.80;61.60;;;;;;5074673;28;20253;-61
2024/01/29 10:34:06;;;;;;;3.03;2.73;;;8.80;60.70;;;;;;5074768;28;20768;-61
2024/01/29 10:36:33;;;;;;;3.35;2.55;;;8.80;60.50;;;;;;5074650;28;20497;-63
2024/01/29 10:39:01;;;;;;;3.33;2.33;;;8.90;60.50;;;;;;5074514;28;20207;-61
2024/01/29 10:41:32;;;;;;;2.70;2.03;;;9.00;60.30;;;;;;5074638;28;20225;-61
2024/01/29 10:44:03;;;;;;;3.13;2.53;;;9.00;60.10;;;;;;5074208;28;20185;-61
2024/01/29 10:46:33;;;;;;;4.38;2.85;;;9.10;60.00;;;;;;5074729;28;20196;-62
2024/01/29 10:49:02;;;;;;;2.78;2.58;;;9.10;59.90;;;;;;5074390;28;20209;-63
2024/01/29 10:51:32;;;;;;;6.07;2.63;;;9.20;60.00;;;;;;5074731;28;20231;-62
2024/01/29 10:54:00;;;;;;;5.28;2.25;;;9.30;59.90;;;;;;5074916;28;20470;-62
2024/01/29 10:56:27;;;;;;;3.22;2.45;;;9.40;59.90;;;;;;5074755;28;20224;-60
2024/01/29 10:58:58;;;;;;;7.47;3.20;;;9.50;59.80;;;;;;5074243;28;20213;-62
2024/01/29 11:01:25;;;;;;;3.90;2.77;;;9.50;59.60;;;;;;5074452;28;20482;-61
2024/01/29 11:03:53;;;;;;;2.87;2.40;;;9.50;59.40;;;;;;5078172;28;20446;-61
2024/01/29 11:06:26;;;;;;;3.33;2.43;;;9.60;59.40;;;;;;5077297;28;20461;-62
2024/01/29 11:08:57;;;;;;;5.30;2.63;;;9.70;59.40;;;;;;5076790;28;20794;-60
2024/01/29 11:11:27;;;;;;;3.20;2.53;;;9.70;59.20;;;;;;5076969;28;20834;-62
2024/01/29 11:13:54;;;;;;;5.23;2.87;;;9.80;59.20;;;;;;5075686;28;20591;-61
2024/01/29 11:16:22;;;;;;;2.53;2.33;;;9.80;58.80;;;;;;5076449;28;20451;-60
2024/01/29 11:18:49;;;;;;;5.17;3.00;;;9.80;58.80;;;;;;5076568;28;20449;-61
2024/01/29 11:21:16;;;;;;;2.40;2.20;;;9.80;58.80;;;;;;5076239;28;20530;-60
2024/01/29 11:23:46;;;;;;;2.70;2.50;;;9.90;58.90;;;;;;5076313;28;20443;-62
2024/01/29 11:26:15;;;;;;;4.57;3.00;;;10.00;58.10;;;;;;5074031;28;20944;-61
2024/01/29 11:28:42;;;;;;;3.40;2.70;;;10.00;58.20;;;;;;5074032;28;20933;-62
2024/01/29 11:31:11;;;;;;;3.40;3.00;;;10.10;58.40;;;;;;5077751;28;20463;-61
2024/01/29 11:33:37;;;;;;;3.80;2.50;;;10.10;58.50;;;;;;5080459;28;20483;-61
2024/01/29 11:36:07;;;;;;;3.40;2.87;;;10.20;58.40;;;;;;5077278;28;20922;-62
2024/01/29 11:38:34;;;;;;;4.63;2.70;;;10.20;58.40;;;;;;5073962;28;20450;-63
2024/01/29 11:41:03;;;;;;;2.60;2.30;;;10.30;58.50;;;;;;5073758;28;20459;-61
2024/01/29 11:43:31;;;;;;;2.67;2.47;;;10.30;58.00;;;;;;5073380;28;20439;-63
2024/01/29 11:45:58;;;;;;;3.20;2.30;;;10.30;57.90;;;;;;5073431;28;20888;-61
2024/01/29 11:48:25;;;;;;;5.53;3.00;;;10.40;58.00;;;;;;5073213;28;20450;-63
2024/01/29 11:50:54;;;;;;;3.07;2.73;;;10.40;57.80;;;;;;5073736;28;20661;-62
2024/01/29 11:53:23;;;;;;;3.67;2.90;;;10.40;57.70;;;;;;5073395;28;20532;-62
2024/01/29 11:55:50;;;;;;;3.97;2.43;;;10.40;57.50;;;;;;5073444;28;20451;-60
2024/01/29 11:58:19;;;;;;;2.77;2.37;;;10.40;57.50;;;;;;5073292;28;20461;-61
2024/01/29 12:00:48;;;;;;;4.03;2.67;;;10.40;57.50;;;;;;5072654;28;20447;-61
2024/01/29 12:03:16;;;;;;;4.23;3.10;;;10.40;57.20;;;;;;5073484;28;20463;-62
2024/01/29 12:05:43;;;;;;;4.57;3.40;;;10.40;57.10;;;;;;5072968;28;20913;-62
2024/01/29 12:08:15;;;;;;;3.60;2.30;;;10.40;57.20;;;;;;5072739;28;20447;-62
2024/01/29 12:10:42;;;;;;;3.13;2.83;;;10.50;57.30;;;;;;5073285;28;20443;-63
2024/01/29 12:13:13;;;;;;;3.43;3.07;;;10.60;57.50;;;;;;5073307;28;20921;-63
2024/01/29 12:15:41;;;;;;;3.93;2.90;;;10.70;57.60;;;;;;5073170;28;20488;-62
2024/01/29 12:18:14;;;;;;;3.90;3.00;;;10.80;57.80;;;;;;5072685;28;20447;-62
2024/01/29 12:20:41;;;;;;;3.13;2.83;;;10.80;57.90;;;;;;5072988;28;20427;-63
2024/01/29 12:23:08;;;;;;;3.40;3.10;;;10.90;57.90;;;;;;5073068;28;20442;-62
2024/01/29 12:25:36;;;;;;;4.60;2.67;;;10.90;57.90;;;;;;5073021;28;20439;-61
2024/01/29 12:28:04;;;;;;;4.37;2.90;;;10.90;57.90;;;;;;5073601;28;20446;-62
2024/01/29 12:30:31;;;;;;;3.97;2.67;;;10.90;57.90;;;;;;5072640;28;20852;-62
2024/01/29 12:33:00;;;;;;;3.47;2.80;;;10.90;57.80;;;;;;5073860;28;20475;-61
2024/01/29 12:35:28;;;;;;;2.87;2.50;;;10.90;57.70;;;;;;5076886;28;20999;-63
2024/01/29 12:38:04;;;;;;;6.00;2.90;;;11.00;57.70;;;;;;5077983;28;20929;-61
2024/01/29 12:40:31;;;;;;;3.87;2.90;;;11.00;57.70;;;;;;5078857;28;20423;-61
2024/01/29 12:43:01;;;;;;;4.97;3.07;;;10.90;57.70;;;;;;5078778;28;20467;-62
2024/01/29 12:45:28;;;;;;;4.37;2.50;;;10.90;57.60;;;;;;5078475;28;20465;-62
2024/01/29 12:48:07;;;;;;;4.20;3.70;;;10.90;57.50;;;;;;5078864;28;20447;-62
2024/01/29 12:50:34;;;;;;;3.50;3.20;;;10.80;57.60;;;;;;5078248;28;20427;-62
2024/01/29 12:53:01;;;;;;;4.23;2.90;;;10.90;57.70;;;;;;5078566;28;20474;-62
2024/01/29 12:55:28;;;;;;;4.13;3.37;;;10.90;57.70;;;;;;5079499;28;20478;-62
2024/01/29 12:57:54;;;;;;;4.80;2.87;;;10.80;57.70;;;;;;5078796;28;20945;-62